createdAt,value
2022-07-31T11:01:53.195Z,6.80
2022-07-31T11:03:46.762Z,5.80
2022-07-31T11:06:01.353Z,6.00
2022-07-31T11:07:46.483Z,5.00
2022-07-31T11:09:33.952Z,5.60
2022-07-31T11:11:58.326Z,9.80
2022-07-31T11:14:08.576Z,20.20
2022-07-31T11:16:06.270Z,23.60
2022-07-31T11:18:26.375Z,23.40
2022-07-31T11:20:30.341Z,18.40
2022-07-31T11:22:30.783Z,19.20
2022-07-31T11:24:03.037Z,20.80
2022-07-31T11:25:37.375Z,20.20
2022-07-31T11:27:09.167Z,19.00
2022-07-31T11:28:43.990Z,19.80
2022-07-31T11:30:15.674Z,17.20
2022-07-31T11:31:47.437Z,17.00
2022-07-31T11:33:49.548Z,20.20
2022-07-31T11:35:28.721Z,15.80
2022-07-31T11:37:00.665Z,16.00
2022-07-31T11:38:32.364Z,19.60
2022-07-31T11:40:05.578Z,18.20
2022-07-31T11:41:44.109Z,15.60
2022-07-31T11:43:26.072Z,13.40
2022-07-31T11:45:10.888Z,14.60
2022-07-31T11:46:43.106Z,11.20
2022-07-31T11:48:16.138Z,17.00
2022-07-31T11:50:01.063Z,23.80
2022-07-31T11:51:32.819Z,19.20
2022-07-31T11:53:06.871Z,15.60
2022-07-31T11:54:39.128Z,14.40
2022-07-31T11:56:10.813Z,15.80
2022-07-31T11:57:50.933Z,15.20
2022-07-31T11:59:44.875Z,12.80
2022-07-31T12:01:18.359Z,15.60
2022-07-31T12:02:50.140Z,13.80
2022-07-31T12:04:21.879Z,12.80
2022-07-31T12:05:53.701Z,30.00
2022-07-31T12:07:25.488Z,23.80
2022-07-31T12:08:57.224Z,27.60
2022-07-31T12:10:28.950Z,13.80
2022-07-31T12:12:00.971Z,25.20
2022-07-31T12:13:32.782Z,20.20
2022-07-31T12:15:18.633Z,21.00
2022-07-31T12:16:50.411Z,21.40
2022-07-31T12:18:22.161Z,21.00
2022-07-31T12:19:57.907Z,19.80
2022-07-31T12:21:33.975Z,20.20
2022-07-31T12:23:06.037Z,20.40
2022-07-31T12:24:39.299Z,20.00
2022-07-31T12:26:12.763Z,18.00
2022-07-31T12:27:44.459Z,15.00
2022-07-31T12:29:16.173Z,16.00
2022-07-31T12:30:58.022Z,14.60
2022-07-31T12:32:29.819Z,14.00
2022-07-31T12:34:01.602Z,14.40
2022-07-31T12:35:56.518Z,9.40
2022-07-31T12:37:28.909Z,9.60
2022-07-31T12:39:01.395Z,10.00
2022-07-31T12:40:33.355Z,8.60
2022-07-31T12:42:05.278Z,10.80
2022-07-31T12:43:37.014Z,9.80
2022-07-31T12:45:17.932Z,10.00
2022-07-31T12:46:52.040Z,8.40
2022-07-31T12:48:23.752Z,8.60
2022-07-31T12:49:55.741Z,7.20
2022-07-31T12:51:44.288Z,7.00
2022-07-31T12:53:18.491Z,7.40
2022-07-31T12:54:50.335Z,8.00
2022-07-31T12:56:22.045Z,6.00
2022-07-31T12:57:54.567Z,21.60
2022-07-31T12:59:27.035Z,18.80
2022-07-31T13:00:59.212Z,13.80
2022-07-31T13:02:31.352Z,20.00
2022-07-31T13:04:03.610Z,14.60
2022-07-31T13:05:35.437Z,11.80
2022-07-31T13:07:07.733Z,11.40
2022-07-31T13:08:39.645Z,10.20
2022-07-31T13:10:20.054Z,12.40
2022-07-31T13:11:57.877Z,24.40
2022-07-31T13:13:30.023Z,21.80
2022-07-31T13:15:02.110Z,20.00
2022-07-31T13:16:34.007Z,16.40
2022-07-31T13:18:07.495Z,19.20
2022-07-31T13:19:39.360Z,17.40
2022-07-31T13:21:11.139Z,14.40
2022-07-31T13:22:42.939Z,14.00
2022-07-31T13:24:14.778Z,15.80
2022-07-31T13:25:46.558Z,14.60
2022-07-31T13:27:18.913Z,14.60
2022-07-31T13:28:50.723Z,15.60
2022-07-31T13:30:22.926Z,13.60
2022-07-31T13:31:54.720Z,12.20
2022-07-31T13:33:26.840Z,10.20
2022-07-31T13:35:24.029Z,14.00
2022-07-31T13:36:50.601Z,13.00
2022-07-31T13:38:22.409Z,11.60
2022-07-31T13:39:54.145Z,13.60
2022-07-31T13:41:28.293Z,10.00
2022-07-31T13:43:00.144Z,10.00
2022-07-31T13:44:33.317Z,13.40
2022-07-31T13:46:05.054Z,27.80
2022-07-31T13:47:51.062Z,23.20
2022-07-31T13:49:29.344Z,18.00
2022-07-31T13:51:01.674Z,20.60
2022-07-31T13:52:33.418Z,15.20
2022-07-31T13:54:05.705Z,20.40
2022-07-31T13:55:37.517Z,16.60
2022-07-31T13:57:09.237Z,22.00
2022-07-31T13:58:41.056Z,17.80
2022-07-31T14:00:13.393Z,19.20
2022-07-31T14:02:03.406Z,18.20
2022-07-31T14:03:36.699Z,18.20
2022-07-31T14:05:08.954Z,14.40
2022-07-31T14:06:40.814Z,16.80
2022-07-31T14:08:32.831Z,12.80
2022-07-31T14:10:05.440Z,14.20
2022-07-31T14:11:37.271Z,11.40
2022-07-31T14:13:09.307Z,13.60
2022-07-31T14:14:41.286Z,12.00
2022-07-31T14:16:13.101Z,11.20
2022-07-31T14:17:44.951Z,11.80
2022-07-31T14:19:16.759Z,11.00
2022-07-31T14:20:48.569Z,8.20
2022-07-31T14:22:20.307Z,9.40
2022-07-31T14:23:52.113Z,9.20
2022-07-31T14:25:23.891Z,4.80
2022-07-31T14:26:56.053Z,7.20
2022-07-31T14:28:28.736Z,7.60
2022-07-31T14:30:01.674Z,7.60
2022-07-31T14:31:33.469Z,6.60
2022-07-31T14:33:05.313Z,6.80
2022-07-31T14:34:36.982Z,6.40
2022-07-31T14:36:08.800Z,6.60
2022-07-31T14:37:43.554Z,6.00
2022-07-31T14:39:15.415Z,24.20
2022-07-31T14:40:48.581Z,30.40
2022-07-31T14:42:22.015Z,26.60
2022-07-31T14:43:54.301Z,21.80
2022-07-31T14:45:26.104Z,20.20
2022-07-31T14:46:58.355Z,19.80
2022-07-31T14:48:30.214Z,16.40
2022-07-31T14:50:09.279Z,18.60
2022-07-31T14:51:42.602Z,17.80
2022-07-31T14:53:14.380Z,17.60
2022-07-31T14:54:46.131Z,12.00
2022-07-31T14:56:30.698Z,13.40
2022-07-31T14:58:09.632Z,13.80
2022-07-31T14:59:41.391Z,15.20
2022-07-31T15:01:15.168Z,14.40
2022-07-31T15:02:49.348Z,14.00
2022-07-31T15:04:21.313Z,13.00
2022-07-31T15:06:43.862Z,8.00
2022-07-31T15:07:46.815Z,11.80
2022-07-31T15:09:20.144Z,11.00
2022-07-31T15:10:52.016Z,12.00
2022-07-31T15:12:23.888Z,13.40
2022-07-31T15:13:55.671Z,9.80
2022-07-31T15:15:28.435Z,11.80
2022-07-31T15:17:00.498Z,9.40
2022-07-31T15:18:32.207Z,10.20
2022-07-31T15:20:04.334Z,13.00
2022-07-31T15:21:36.605Z,11.40
2022-07-31T15:23:08.307Z,11.80
2022-07-31T15:24:43.847Z,9.60
2022-07-31T15:26:22.509Z,11.40
2022-07-31T15:27:54.266Z,11.20
2022-07-31T15:29:26.009Z,12.20
2022-07-31T15:31:17.705Z,7.00
2022-07-31T15:32:51.746Z,24.20
2022-07-31T15:34:23.559Z,20.20
2022-07-31T15:35:55.382Z,14.60
2022-07-31T15:37:27.083Z,18.20
2022-07-31T15:38:58.875Z,18.80
2022-07-31T15:40:30.659Z,14.60
2022-07-31T15:42:02.618Z,13.60
2022-07-31T15:43:37.570Z,15.60
2022-07-31T15:45:14.407Z,12.80
2022-07-31T15:46:46.247Z,14.20
2022-07-31T15:48:18.024Z,13.20
2022-07-31T15:49:49.865Z,15.40
2022-07-31T15:51:23.569Z,14.60
2022-07-31T15:52:55.273Z,10.60
2022-07-31T15:54:27.052Z,15.00
2022-07-31T15:55:58.841Z,13.00
2022-07-31T15:57:30.579Z,11.80
2022-07-31T15:59:02.268Z,11.20
2022-07-31T16:00:34.109Z,11.40
2022-07-31T16:02:05.848Z,13.00
2022-07-31T16:03:50.210Z,12.00
2022-07-31T16:05:36.135Z,9.40
2022-07-31T16:08:33.538Z,9.00
2022-07-31T16:09:00.899Z,11.00
2022-07-31T16:10:32.696Z,192.00
2022-07-31T16:12:05.780Z,178.75
2022-07-31T16:13:37.645Z,157.00
2022-07-31T16:15:11.348Z,156.67
2022-07-31T16:16:45.825Z,71.40
2022-07-31T16:18:18.844Z,62.00
2022-07-31T16:19:50.563Z,65.25
2022-07-31T16:21:22.277Z,65.25
2022-07-31T16:22:55.694Z,54.50
2022-07-31T16:24:27.800Z,51.75
2022-07-31T16:25:59.533Z,42.50
2022-07-31T16:27:31.295Z,40.50
2022-07-31T16:29:03.753Z,40.00
2022-07-31T16:30:35.717Z,39.50
2022-07-31T16:32:07.942Z,34.20
2022-07-31T16:33:40.093Z,33.40
2022-07-31T16:35:11.919Z,33.20
2022-07-31T16:36:44.339Z,32.40
2022-07-31T16:38:16.172Z,30.00
2022-07-31T16:39:48.469Z,29.80
2022-07-31T16:41:20.243Z,29.00
2022-07-31T16:42:53.175Z,27.40
2022-07-31T16:44:24.909Z,22.00
2022-07-31T16:45:56.808Z,26.00
2022-07-31T16:47:51.066Z,29.60
2022-07-31T16:49:35.571Z,28.40
2022-07-31T16:51:08.379Z,23.20
2022-07-31T16:52:40.239Z,23.20
2022-07-31T16:54:16.469Z,23.20
2022-07-31T16:56:01.456Z,17.40
2022-07-31T16:57:33.719Z,19.60
2022-07-31T16:59:07.060Z,19.80
2022-07-31T17:00:39.439Z,18.60
2022-07-31T17:02:12.924Z,18.40
2022-07-31T17:04:00.445Z,17.60
2022-07-31T17:05:34.060Z,14.40
2022-07-31T17:07:06.300Z,14.40
2022-07-31T17:08:38.478Z,18.00
2022-07-31T17:10:10.512Z,15.00
2022-07-31T17:11:42.387Z,14.20
2022-07-31T17:13:16.140Z,15.20
2022-07-31T17:14:48.679Z,13.60
2022-07-31T17:16:20.592Z,14.40
2022-07-31T17:17:52.432Z,12.40
2022-07-31T17:19:41.594Z,10.60
2022-07-31T17:21:17.017Z,10.00
2022-07-31T17:22:54.539Z,10.00
2022-07-31T17:24:26.402Z,11.00
2022-07-31T17:25:58.178Z,9.20
2022-07-31T17:27:29.880Z,9.80
2022-07-31T17:29:02.519Z,8.20
2022-07-31T17:30:34.529Z,8.60
2022-07-31T17:32:06.538Z,10.60
2022-07-31T17:34:00.682Z,8.20
2022-07-31T17:35:29.993Z,10.00
2022-07-31T17:37:01.865Z,8.20
2022-07-31T17:38:34.777Z,8.60
2022-07-31T17:40:21.590Z,5.00
2022-07-31T17:41:59.646Z,9.80
2022-07-31T17:43:31.371Z,7.80
2022-07-31T17:45:22.687Z,10.00
2022-07-31T17:46:58.119Z,9.80
2022-07-31T17:48:30.097Z,8.40
2022-07-31T17:50:01.796Z,11.00
2022-07-31T17:51:33.509Z,14.20
2022-07-31T17:53:05.292Z,13.00
2022-07-31T17:54:37.185Z,10.80
2022-07-31T17:56:12.806Z,12.00
2022-07-31T17:57:44.927Z,13.00
2022-07-31T17:59:16.742Z,13.60
2022-07-31T18:00:48.464Z,18.00
2022-07-31T18:02:20.871Z,12.80
2022-07-31T18:03:52.885Z,14.00
2022-07-31T18:05:24.610Z,13.00
2022-07-31T18:06:57.616Z,13.40
2022-07-31T18:08:30.007Z,11.00
2022-07-31T18:10:01.750Z,12.60
2022-07-31T18:11:33.513Z,14.00
2022-07-31T18:13:05.678Z,14.80
2022-07-31T18:14:37.397Z,15.40
2022-07-31T18:16:09.182Z,12.40
2022-07-31T18:17:50.329Z,15.00
2022-07-31T18:19:22.357Z,14.00
2022-07-31T18:20:54.470Z,13.00
2022-07-31T18:22:27.119Z,5.00
2022-07-31T18:24:07.795Z,14.20
2022-07-31T18:25:40.134Z,16.20
2022-07-31T18:27:11.931Z,11.80
2022-07-31T18:28:43.685Z,10.20
2022-07-31T18:30:15.821Z,14.00
2022-07-31T18:31:48.002Z,12.60
2022-07-31T18:33:19.863Z,12.80
2022-07-31T18:34:51.794Z,12.00
2022-07-31T18:36:24.021Z,11.00
2022-07-31T18:37:55.841Z,12.00
2022-07-31T18:39:28.853Z,12.40
2022-07-31T18:41:00.739Z,15.60
2022-07-31T18:42:32.589Z,27.00
2022-07-31T18:44:04.528Z,29.40
2022-07-31T18:45:36.443Z,20.80
2022-07-31T18:47:13.263Z,17.20
2022-07-31T18:48:45.070Z,15.80
2022-07-31T18:51:02.170Z,19.40
2022-07-31T18:52:10.125Z,22.60
2022-07-31T18:53:41.923Z,18.20
2022-07-31T18:55:13.755Z,19.20
2022-07-31T18:56:46.076Z,17.20
2022-07-31T18:58:17.776Z,17.00
2022-07-31T18:59:49.658Z,15.40
2022-07-31T19:01:22.048Z,11.20
2022-07-31T19:02:53.821Z,16.00
2022-07-31T19:04:25.845Z,17.00
2022-07-31T19:05:58.628Z,14.60
2022-07-31T19:07:30.784Z,13.20
2022-07-31T19:09:07.816Z,14.80
2022-07-31T19:10:39.533Z,10.00
2022-07-31T19:12:12.727Z,14.40
2022-07-31T19:13:44.680Z,14.20
2022-07-31T19:15:16.478Z,14.00
2022-07-31T19:16:48.381Z,13.60
2022-07-31T19:18:28.649Z,12.20
2022-07-31T19:20:02.424Z,16.60
2022-07-31T19:21:42.818Z,15.00
2022-07-31T19:23:14.800Z,21.80
2022-07-31T19:24:48.180Z,18.80
2022-07-31T19:26:19.983Z,22.20
2022-07-31T19:27:51.683Z,22.20
2022-07-31T19:29:24.292Z,18.40
2022-07-31T19:30:56.163Z,20.20
2022-07-31T19:32:27.991Z,20.80
2022-07-31T19:33:59.817Z,16.80
2022-07-31T19:35:31.909Z,17.20
2022-07-31T19:37:03.683Z,16.20
2022-07-31T19:38:39.754Z,18.80
2022-07-31T19:40:11.982Z,18.40
2022-07-31T19:42:12.025Z,15.80
2022-07-31T19:43:35.832Z,16.20
2022-07-31T19:45:08.081Z,15.80
2022-07-31T19:46:40.085Z,15.00
2022-07-31T19:48:11.874Z,15.00
2022-07-31T19:49:44.937Z,16.20
2022-07-31T19:51:16.700Z,12.60
2022-07-31T19:52:48.453Z,14.00
2022-07-31T19:54:20.250Z,14.20
2022-07-31T19:55:52.130Z,14.80
2022-07-31T19:57:24.912Z,15.20
2022-07-31T19:58:56.696Z,14.80
2022-07-31T20:00:29.097Z,16.40
2022-07-31T20:02:00.841Z,16.40
2022-07-31T20:03:32.820Z,14.60
2022-07-31T20:05:05.144Z,16.00
2022-07-31T20:06:39.025Z,14.00
2022-07-31T20:08:10.852Z,15.80
2022-07-31T20:09:42.617Z,19.40
2022-07-31T20:11:14.433Z,18.00
2022-07-31T20:12:46.245Z,17.60
2022-07-31T20:14:18.478Z,18.60
2022-07-31T20:15:51.714Z,20.20
2022-07-31T20:17:24.555Z,17.80
2022-07-31T20:18:56.313Z,20.80
2022-07-31T20:20:28.156Z,19.40
2022-07-31T20:21:59.989Z,18.00
2022-07-31T20:23:34.337Z,17.80
2022-07-31T20:25:11.871Z,15.40
2022-07-31T20:26:51.456Z,16.20
2022-07-31T20:28:23.323Z,20.20
2022-07-31T20:29:55.114Z,20.60
2022-07-31T20:31:26.870Z,19.00
2022-07-31T20:32:58.728Z,19.80
2022-07-31T20:34:30.791Z,15.20
2022-07-31T20:36:02.732Z,19.00
2022-07-31T20:37:34.591Z,19.00
2022-07-31T20:39:06.521Z,18.60
2022-07-31T20:40:38.457Z,16.60
2022-07-31T20:42:10.158Z,20.00
2022-07-31T20:43:41.885Z,15.40
2022-07-31T20:45:13.809Z,17.00
2022-07-31T20:46:45.634Z,30.80
2022-07-31T20:48:22.545Z,28.20
2022-07-31T20:49:54.407Z,26.20
2022-07-31T20:51:26.347Z,29.20
2022-07-31T20:52:58.106Z,28.20
2022-07-31T20:54:34.088Z,23.60
2022-07-31T20:56:06.751Z,25.60
2022-07-31T20:57:38.849Z,22.80
2022-07-31T20:59:10.724Z,22.40
2022-07-31T21:00:47.426Z,22.00
2022-07-31T21:02:19.582Z,23.00
2022-07-31T21:03:51.406Z,19.00
2022-07-31T21:05:27.413Z,22.20
2022-07-31T21:06:59.851Z,23.80
2022-07-31T21:08:31.601Z,22.20
2022-07-31T21:10:05.192Z,20.60
2022-07-31T21:11:37.311Z,20.40
2022-07-31T21:13:09.354Z,20.40
2022-07-31T21:14:41.181Z,18.40
2022-07-31T21:16:12.968Z,20.60
2022-07-31T21:17:44.752Z,20.20
2022-07-31T21:19:16.497Z,21.80
2022-07-31T21:20:51.678Z,17.20
2022-07-31T21:22:25.473Z,18.20
2022-07-31T21:24:00.818Z,20.00
2022-07-31T21:25:32.919Z,19.20
2022-07-31T21:27:04.730Z,20.40
2022-07-31T21:28:36.942Z,19.00
2022-07-31T21:30:08.985Z,18.20
2022-07-31T21:31:48.817Z,20.60
2022-07-31T21:33:22.992Z,23.80
2022-07-31T21:34:55.432Z,23.60
2022-07-31T21:36:27.294Z,24.20
2022-07-31T21:37:59.480Z,24.40
2022-07-31T21:39:32.551Z,23.40
2022-07-31T21:41:04.615Z,23.00
2022-07-31T21:42:37.522Z,23.40
2022-07-31T21:44:17.008Z,24.40
2022-07-31T21:45:57.501Z,24.00
2022-07-31T21:47:53.077Z,20.80
2022-07-31T21:49:25.351Z,21.20
2022-07-31T21:50:57.400Z,20.20
2022-07-31T21:52:30.074Z,22.20
2022-07-31T21:54:01.920Z,22.40
2022-07-31T21:55:33.686Z,22.80
2022-07-31T21:57:05.517Z,15.00
2022-07-31T21:58:40.905Z,21.00
2022-07-31T22:00:13.982Z,22.20
2022-07-31T22:01:58.097Z,20.60
2022-07-31T22:03:33.819Z,23.00
2022-07-31T22:05:24.282Z,22.20
2022-07-31T22:07:14.479Z,22.80
2022-07-31T22:08:46.225Z,23.20
2022-07-31T22:10:18.743Z,31.40
2022-07-31T22:12:05.159Z,29.80
2022-07-31T22:13:37.046Z,29.20
2022-07-31T22:15:11.264Z,28.40
2022-07-31T22:16:46.749Z,30.40
2022-07-31T22:18:18.790Z,26.20
2022-07-31T22:19:51.342Z,29.00
2022-07-31T22:21:23.381Z,29.20
2022-07-31T22:22:57.515Z,26.00
2022-07-31T22:24:29.767Z,28.20
2022-07-31T22:26:01.660Z,28.20
2022-07-31T22:27:52.365Z,27.80
2022-07-31T22:29:24.189Z,27.60
2022-07-31T22:30:56.283Z,27.20
2022-07-31T22:32:28.163Z,26.00
2022-07-31T22:34:00.021Z,26.20
